Time;durP1;ratioP1;P1;durP2;ratioP2;P2;SDS_P1;SDS_P2;PMS_P1;PMS_P2;Temp;Humidity;BMP_temperature;BMP_pressure;BME280_temperature;BME280_humidity;BME280_pressure;Samples;Min_cycle;Max_cycle;Signal;HPM_P1;HPM_P2
2022/12/07 00:01:28;;;;;;;20.20;14.23;;;2.30;1.00;;;;;;4986352;28;20271;-78
2022/12/07 00:04:03;;;;;;;19.03;14.70;;;2.50;1.00;;;;;;4987207;28;20219;-79
2022/12/07 00:06:29;;;;;;;19.07;14.97;;;2.30;15.70;;;;;;5001369;28;20191;-80
2022/12/07 00:08:55;;;;;;;18.17;13.93;;;2.30;68.20;;;;;;4984939;28;20681;-80
2022/12/07 00:11:22;;;;;;;19.70;15.27;;;2.40;99.90;;;;;;4984036;28;20192;-79
2022/12/07 00:13:56;;;;;;;19.10;14.70;;;2.30;78.70;;;;;;4985055;28;20226;-84
2022/12/07 00:16:24;;;;;;;21.20;14.93;;;2.30;99.90;;;;;;4987228;28;20266;-78
2022/12/07 00:18:54;;;;;;;19.03;14.60;;;2.40;99.90;;;;;;4987635;28;20666;-81
2022/12/07 00:21:24;;;;;;;19.90;14.93;;;2.40;91.00;;;;;;4988016;28;20621;-77
2022/12/07 00:23:51;;;;;;;18.57;15.70;;;2.50;90.90;;;;;;4987473;28;20291;-79
2022/12/07 00:26:22;;;;;;;20.87;15.07;;;3.40;1.00;;;;;;4985796;28;20430;-87
2022/12/07 00:28:49;;;;;;;19.57;14.60;;;2.50;1.00;;;;;;4986178;28;20262;-80
2022/12/07 00:31:16;;;;;;;19.63;15.60;;;2.60;1.00;;;;;;4986160;28;20210;-82
2022/12/07 00:33:42;;;;;;;19.50;14.47;;;3.70;1.00;;;;;;4989322;28;20306;-79
2022/12/07 00:36:13;;;;;;;21.27;15.07;;;2.60;1.00;;;;;;4985875;28;20299;-80
2022/12/07 00:38:39;;;;;;;20.13;15.37;;;2.60;1.00;;;;;;4986006;28;20686;-80
2022/12/07 00:41:14;;;;;;;21.27;15.80;;;2.50;1.00;;;;;;4988607;28;20177;-80
2022/12/07 00:43:42;;;;;;;21.50;15.00;;;2.60;1.00;;;;;;4990890;28;20215;-82
2022/12/07 00:46:08;;;;;;;19.37;14.90;;;2.60;1.00;;;;;;4991228;28;20730;-79
2022/12/07 00:48:34;;;;;;;21.30;16.07;;;3.20;1.00;;;;;;4989369;28;20855;-80
2022/12/07 00:51:00;;;;;;;17.50;14.23;;;2.70;1.00;;;;;;4989466;28;20227;-79
2022/12/07 00:53:26;;;;;;;20.67;15.10;;;2.70;1.00;;;;;;4989804;28;20342;-78
2022/12/07 00:55:52;;;;;;;24.63;17.47;;;3.80;1.00;;;;;;4989761;28;20191;-81
2022/12/07 00:58:19;;;;;;;20.17;15.53;;;2.70;1.00;;;;;;4988981;28;20187;-80
2022/12/07 01:00:45;;;;;;;23.97;17.17;;;2.70;1.00;;;;;;4989922;28;20211;-80
2022/12/07 01:03:13;;;;;;;23.23;16.37;;;4.60;1.00;;;;;;4990796;28;20184;-79
2022/12/07 01:05:39;;;;;;;26.33;18.00;;;2.80;1.00;;;;;;4989913;28;20227;-80
2022/12/07 01:08:05;;;;;;;25.00;17.63;;;2.80;1.00;;;;;;4988958;28;20202;-80
2022/12/07 01:10:31;;;;;;;24.67;16.83;;;2.80;1.00;;;;;;4989207;28;20192;-80
2022/12/07 01:12:58;;;;;;;27.57;18.93;;;2.80;1.00;;;;;;4989530;28;20303;-81
2022/12/07 01:15:27;;;;;;;25.23;17.73;;;2.80;1.00;;;;;;5008161;28;20208;-79
2022/12/07 01:17:54;;;;;;;25.67;18.73;;;2.90;18.90;;;;;;4991086;28;20199;-81
2022/12/07 01:20:20;;;;;;;29.00;18.37;;;2.90;99.10;;;;;;5005528;28;20251;-80
2022/12/07 01:22:45;;;;;;;26.83;18.73;;;2.90;99.90;;;;;;4990471;28;20279;-80
2022/12/07 01:25:11;;;;;;;28.03;18.27;;;2.90;99.90;;;;;;4990578;28;20204;-80
2022/12/07 01:27:37;;;;;;;29.57;19.70;;;2.90;99.90;;;;;;4990380;28;20283;-80
2022/12/07 01:30:05;;;;;;;27.10;19.23;;;3.00;99.90;;;;;;4990336;28;20757;-80
2022/12/07 01:32:31;;;;;;;30.47;18.23;;;3.00;99.90;;;;;;4987971;28;20212;-81
2022/12/07 01:34:57;;;;;;;29.93;18.80;;;4.50;99.90;;;;;;4990202;28;20263;-80
2022/12/07 01:37:22;;;;;;;30.47;19.10;;;3.00;99.90;;;;;;4988635;28;20606;-79
2022/12/07 01:39:49;;;;;;;32.60;19.90;;;3.00;99.90;;;;;;4987176;28;20185;-80
2022/12/07 01:42:15;;;;;;;29.00;19.47;;;3.00;99.90;;;;;;4988131;28;20307;-79
2022/12/07 01:45:18;;;;;;;29.07;19.03;;;3.00;91.40;;;;;;4988173;28;20200;-80
2022/12/07 01:47:50;;;;;;;27.23;18.70;;;2.90;99.90;;;;;;4988589;28;20210;-80
2022/12/07 01:50:16;;;;;;;32.67;19.33;;;2.90;99.90;;;;;;4988144;28;20180;-80
2022/12/07 01:52:43;;;;;;;29.53;20.70;;;2.90;99.90;;;;;;4987054;28;20192;-80
2022/12/07 01:55:12;;;;;;;29.37;20.10;;;3.00;99.90;;;;;;4987852;28;20204;-81
2022/12/07 01:57:41;;;;;;;29.40;19.03;;;3.00;99.90;;;;;;4988208;28;20188;-82
2022/12/07 02:00:08;;;;;;;28.80;18.60;;;4.00;99.90;;;;;;4990110;28;20247;-79
2022/12/07 02:02:37;;;;;;;30.27;19.03;;;3.00;99.90;;;;;;4988384;28;20192;-81
2022/12/07 02:05:05;;;;;;;30.10;19.30;;;3.00;99.90;;;;;;4989744;28;20716;-80
2022/12/07 02:07:34;;;;;;;27.17;18.20;;;3.10;99.90;;;;;;4989574;28;20196;-80
2022/12/07 02:10:20;;;;;;;26.63;18.17;;;3.00;99.90;;;;;;4988092;28;20628;-79
2022/12/07 02:12:50;;;;;;;25.93;18.33;;;3.00;99.90;;;;;;4988772;28;20827;-81
2022/12/07 02:15:16;;;;;;;28.37;17.97;;;3.00;99.90;;;;;;5004018;28;20678;-81
2022/12/07 02:18:04;;;;;;;26.77;19.03;;;3.00;99.90;;;;;;4987450;28;20187;-79
2022/12/07 02:20:41;;;;;;;31.87;19.40;;;3.00;99.90;;;;;;4987293;28;20180;-79
2022/12/07 02:23:34;;;;;;;27.03;17.87;;;3.00;99.90;;;;;;4988653;28;20511;-80
2022/12/07 02:26:19;;;;;;;25.57;17.23;;;3.60;99.90;;;;;;4987487;28;20869;-81
2022/12/07 02:29:03;;;;;;;22.93;16.77;;;3.00;99.90;;;;;;5002898;28;20191;-80
2022/12/07 02:31:31;;;;;;;23.17;17.20;;;3.00;1.00;;;;;;4987151;28;20193;-80
2022/12/07 02:34:15;;;;;;;24.63;17.53;;;2.90;1.00;;;;;;4988172;28;20216;-80
2022/12/07 02:36:51;;;;;;;26.00;17.97;;;2.90;1.00;;;;;;4988830;28;20267;-81
2022/12/07 02:39:31;;;;;;;23.73;16.87;;;3.00;1.00;;;;;;4988706;28;21029;-82
2022/12/07 02:42:02;;;;;;;26.20;17.40;;;3.00;1.00;;;;;;4987597;28;20251;-79
2022/12/07 02:44:30;;;;;;;23.80;17.33;;;3.00;1.00;;;;;;4987140;28;20291;-80
2022/12/07 02:47:05;;;;;;;24.27;17.53;;;3.00;1.00;;;;;;4984841;28;20200;-81
2022/12/07 02:49:31;;;;;;;21.63;15.90;;;3.70;1.00;;;;;;4988277;28;20541;-80
2022/12/07 02:51:57;;;;;;;25.70;17.30;;;3.00;1.00;;;;;;4988378;28;20275;-81
2022/12/07 02:54:23;;;;;;;28.47;18.83;;;3.00;1.00;;;;;;4986415;28;20669;-81
2022/12/07 02:56:56;;;;;;;23.00;16.13;;;3.00;1.00;;;;;;4987869;28;20192;-79
2022/12/07 02:59:45;;;;;;;23.97;17.13;;;3.00;1.00;;;;;;4987640;28;20212;-79
2022/12/07 03:02:26;;;;;;;24.70;16.87;;;3.00;1.00;;;;;;4987511;28;20176;-80
2022/12/07 03:05:06;;;;;;;24.30;16.40;;;3.00;1.00;;;;;;4986041;28;20211;-80
2022/12/07 03:07:54;;;;;;;24.27;17.67;;;3.10;1.00;;;;;;4986590;28;20184;-81
2022/12/07 03:10:45;;;;;;;22.60;16.10;;;2.90;1.00;;;;;;4986068;28;20196;-80
2022/12/07 03:13:23;;;;;;;22.43;17.20;;;3.10;1.00;;;;;;4984647;28;20208;-80
2022/12/07 03:16:00;;;;;;;22.93;17.07;;;3.10;1.00;;;;;;4987212;28;20506;-80
2022/12/07 03:18:31;;;;;;;23.57;17.20;;;3.00;1.00;;;;;;4986380;28;20192;-80
2022/12/07 03:21:02;;;;;;;21.57;16.27;;;3.10;1.00;;;;;;4986202;28;20203;-80
2022/12/07 03:23:28;;;;;;;22.77;16.57;;;3.10;1.00;;;;;;4985422;28;20258;-79
2022/12/07 03:26:00;;;;;;;21.33;16.83;;;3.10;1.00;;;;;;4986813;28;20250;-80
2022/12/07 03:28:31;;;;;;;23.60;17.70;;;1.00;1.00;;;;;;4989336;28;20184;-79
2022/12/07 03:31:06;;;;;;;23.33;16.77;;;3.10;1.00;;;;;;4989472;28;20211;-80
2022/12/07 03:33:59;;;;;;;21.47;16.23;;;3.10;1.00;;;;;;4986386;28;20215;-79
2022/12/07 03:36:37;;;;;;;25.07;17.07;;;3.20;1.00;;;;;;4988392;28;20238;-79
2022/12/07 03:39:36;;;;;;;22.90;16.93;;;4.00;1.00;;;;;;4987913;28;20175;-79
2022/12/07 03:42:05;;;;;;;24.27;17.87;;;3.20;1.00;;;;;;4986510;28;20188;-80
2022/12/07 03:44:32;;;;;;;23.83;18.20;;;3.20;1.00;;;;;;4989099;28;20678;-80
2022/12/07 03:47:21;;;;;;;26.30;17.23;;;3.20;1.00;;;;;;4989045;28;20248;-80
2022/12/07 03:50:29;;;;;;;23.93;17.73;;;3.20;1.00;;;;;;4987771;28;20242;-80
2022/12/07 03:53:11;;;;;;;21.50;16.70;;;3.20;99.90;;;;;;4978255;28;20255;-80
2022/12/07 03:55:41;;;;;;;24.00;17.57;;;3.30;99.90;;;;;;4988006;28;20294;-80
2022/12/07 03:58:12;;;;;;;23.57;17.40;;;3.30;99.90;;;;;;5004421;28;20177;-80
2022/12/07 04:00:37;;;;;;;24.47;17.47;;;4.80;99.90;;;;;;4986851;28;20192;-80
2022/12/07 04:03:03;;;;;;;22.67;16.63;;;3.30;99.90;;;;;;4985994;28;21218;-80
2022/12/07 04:05:29;;;;;;;22.53;16.50;;;3.30;99.90;;;;;;4985805;28;20219;-80
2022/12/07 04:07:54;;;;;;;22.43;15.87;;;3.10;99.90;;;;;;4986141;28;20580;-79
2022/12/07 04:10:20;;;;;;;22.10;15.77;;;3.30;99.90;;;;;;4988585;28;20195;-79
2022/12/07 04:12:46;;;;;;;21.10;16.30;;;3.60;99.90;;;;;;4988187;28;20191;-83
2022/12/07 04:15:12;;;;;;;23.13;15.83;;;3.30;99.90;;;;;;4991487;28;20549;-79
2022/12/07 04:17:37;;;;;;;23.90;15.13;;;3.30;99.90;;;;;;4994555;28;20576;-80
2022/12/07 04:20:05;;;;;;;22.03;16.03;;;3.30;1.00;;;;;;4993169;28;20238;-79
2022/12/07 04:22:31;;;;;;;21.77;15.57;;;3.30;1.00;;;;;;4992735;28;20279;-80
2022/12/07 04:24:56;;;;;;;24.70;16.13;;;3.30;99.90;;;;;;4993644;28;20291;-80
2022/12/07 04:27:22;;;;;;;20.87;15.00;;;3.40;99.90;;;;;;4994225;28;20287;-80
2022/12/07 04:29:47;;;;;;;22.93;15.50;;;3.40;99.90;;;;;;4994120;28;20243;-79
2022/12/07 04:32:13;;;;;;;19.30;14.77;;;3.40;99.90;;;;;;4993417;28;20704;-79
2022/12/07 04:34:39;;;;;;;20.90;15.13;;;3.40;99.90;;;;;;4992801;28;20274;-80
2022/12/07 04:37:04;;;;;;;21.07;14.20;;;3.50;99.90;;;;;;4993571;28;20180;-80
2022/12/07 04:39:33;;;;;;;18.00;13.37;;;3.40;99.90;;;;;;4991261;28;20212;-79
2022/12/07 04:41:59;;;;;;;19.03;13.57;;;3.60;1.00;;;;;;4993045;28;20537;-79
2022/12/07 04:44:26;;;;;;;18.33;13.97;;;3.50;1.00;;;;;;4993325;28;20208;-80
2022/12/07 04:46:52;;;;;;;18.40;13.43;;;3.50;1.00;;;;;;4994016;28;20184;-80
2022/12/07 04:49:19;;;;;;;18.90;12.80;;;3.50;1.00;;;;;;4993821;28;20184;-79
2022/12/07 04:51:45;;;;;;;18.33;13.33;;;3.50;1.00;;;;;;4992116;28;20195;-80
2022/12/07 04:54:11;;;;;;;22.47;14.53;;;3.50;1.00;;;;;;4992262;28;20918;-80
2022/12/07 04:56:37;;;;;;;17.83;13.53;;;3.60;1.00;;;;;;4992128;28;20203;-79
2022/12/07 04:59:03;;;;;;;17.83;12.50;;;4.90;1.00;;;;;;4992421;28;20187;-80
2022/12/07 05:01:30;;;;;;;19.50;13.13;;;3.50;1.00;;;;;;4992986;28;20181;-79
2022/12/07 05:03:55;;;;;;;20.13;12.90;;;3.50;1.00;;;;;;4993111;28;20208;-79
2022/12/07 05:06:21;;;;;;;16.70;13.20;;;3.50;1.00;;;;;;4990399;28;20662;-79
2022/12/07 05:08:47;;;;;;;18.00;12.67;;;3.40;1.00;;;;;;4990530;28;20212;-80
2022/12/07 05:13:57;;;;;;;25.07;14.23;;;3.40;1.00;;;;;;4990765;28;20223;-80
2022/12/07 05:16:23;;;;;;;20.27;13.33;;;3.40;1.00;;;;;;4990995;28;20180;-80
2022/12/07 05:18:49;;;;;;;20.37;13.50;;;3.40;1.00;;;;;;4988944;28;20617;-83
2022/12/07 05:21:14;;;;;;;19.97;13.67;;;3.40;1.00;;;;;;4989838;28;20613;-82
2022/12/07 05:23:40;;;;;;;20.43;13.43;;;3.40;1.00;;;;;;4990143;28;20222;-79
2022/12/07 05:26:05;;;;;;;19.77;12.60;;;3.40;1.00;;;;;;4990235;28;21075;-78
2022/12/07 05:28:31;;;;;;;16.40;12.30;;;3.50;1.00;;;;;;4990431;28;20243;-80
2022/12/07 05:30:57;;;;;;;14.83;12.13;;;3.40;1.00;;;;;;4990778;28;20303;-85
2022/12/07 05:33:22;;;;;;;16.27;11.60;;;3.40;1.00;;;;;;4989397;28;20243;-82
2022/12/07 05:35:48;;;;;;;17.53;12.37;;;3.40;1.00;;;;;;4988829;28;21147;-80
2022/12/07 05:38:13;;;;;;;16.63;12.03;;;3.40;1.00;;;;;;4987311;28;20206;-79
2022/12/07 05:40:39;;;;;;;18.60;11.67;;;3.40;1.00;;;;;;4988313;28;20187;-81
2022/12/07 05:43:04;;;;;;;18.73;12.17;;;3.40;1.00;;;;;;4988138;28;20215;-79
2022/12/07 05:45:30;;;;;;;20.63;13.30;;;3.40;1.00;;;;;;4985228;28;20208;-79
2022/12/07 05:47:56;;;;;;;15.30;11.97;;;3.40;1.00;;;;;;4988574;28;20192;-80
2022/12/07 05:50:21;;;;;;;16.47;11.50;;;3.40;1.00;;;;;;4987967;28;20238;-81
2022/12/07 05:52:47;;;;;;;17.83;11.67;;;3.40;1.00;;;;;;4986764;28;20693;-80
2022/12/07 05:55:13;;;;;;;16.57;10.93;;;3.40;1.00;;;;;;4985776;28;20207;-79
2022/12/07 05:57:38;;;;;;;17.87;11.53;;;3.30;1.00;;;;;;4987199;28;20185;-79
2022/12/07 06:00:05;;;;;;;18.07;12.07;;;3.20;1.00;;;;;;4988264;28;20182;-78
2022/12/07 06:02:30;;;;;;;14.93;11.20;;;3.20;1.00;;;;;;4985924;28;21369;-78
2022/12/07 06:04:56;;;;;;;18.20;11.57;;;3.10;1.00;;;;;;4986185;28;20208;-79
2022/12/07 06:07:21;;;;;;;17.53;12.17;;;3.10;99.90;;;;;;4985970;28;20287;-78
2022/12/07 06:09:47;;;;;;;18.10;13.57;;;3.20;26.10;;;;;;4986439;28;20277;-79
2022/12/07 06:14:59;;;;;;;18.10;11.90;;;3.20;11.80;;;;;;4986959;28;20234;-80
2022/12/07 06:17:25;;;;;;;17.73;11.50;;;3.30;1.00;;;;;;4986096;28;20184;-80
2022/12/07 06:19:50;;;;;;;18.30;11.80;;;3.30;1.00;;;;;;4987155;28;20216;-79
2022/12/07 06:22:16;;;;;;;17.33;11.70;;;3.30;1.00;;;;;;4985981;28;20267;-79
2022/12/07 06:24:42;;;;;;;18.03;12.70;;;3.30;1.00;;;;;;4987290;28;20312;-78
2022/12/07 06:27:08;;;;;;;16.60;11.23;;;3.30;7.80;;;;;;4986473;28;20180;-81
2022/12/07 06:29:34;;;;;;;17.87;11.03;;;3.30;65.30;;;;;;4987900;28;20227;-81
2022/12/07 06:32:00;;;;;;;15.50;9.93;;;3.40;99.90;;;;;;4989516;28;20216;-81
2022/12/07 06:34:26;;;;;;;17.93;11.33;;;4.70;1.00;;;;;;4986955;28;20212;-79
2022/12/07 06:36:54;;;;;;;15.93;10.87;;;3.10;1.00;;;;;;4987188;22;20228;-79
2022/12/07 06:39:22;;;;;;;14.73;9.80;;;3.10;92.70;;;;;;4985641;22;20613;-80
2022/12/07 06:41:48;;;;;;;15.40;10.60;;;3.00;1.00;;;;;;4966963;28;20828;-80
2022/12/07 06:44:13;;;;;;;13.43;10.37;;;3.00;99.90;;;;;;4967525;28;20215;-80
2022/12/07 06:46:39;;;;;;;15.53;11.17;;;3.10;99.90;;;;;;4967802;28;20223;-81
2022/12/07 06:49:06;;;;;;;13.97;10.10;;;3.10;99.90;;;;;;4968698;28;20189;-80
2022/12/07 06:51:33;;;;;;;16.27;12.00;;;3.10;99.90;;;;;;4969019;28;20188;-79
2022/12/07 06:53:58;;;;;;;16.23;12.33;;;3.10;99.90;;;;;;4983522;28;20219;-80
2022/12/07 06:56:24;;;;;;;20.20;12.03;;;3.10;1.00;;;;;;4968887;28;20189;-80
2022/12/07 06:58:50;;;;;;;19.37;12.40;;;3.00;1.00;;;;;;4968324;28;20192;-80
2022/12/07 07:01:17;;;;;;;22.53;14.40;;;3.20;1.00;;;;;;4968748;28;20296;-80
2022/12/07 07:03:44;;;;;;;17.73;12.90;;;3.20;1.00;;;;;;4966797;28;20683;-79
2022/12/07 07:06:10;;;;;;;25.83;13.70;;;3.20;1.00;;;;;;4966390;28;20181;-79
2022/12/07 07:08:37;;;;;;;22.53;13.73;;;3.20;99.90;;;;;;4966957;28;20193;-79
2022/12/07 07:11:04;;;;;;;22.63;13.93;;;5.10;99.90;;;;;;4967612;28;20192;-79
2022/12/07 07:13:29;;;;;;;30.40;17.50;;;3.20;99.90;;;;;;4967045;28;20209;-80
2022/12/07 07:15:55;;;;;;;30.83;17.53;;;3.30;99.90;;;;;;4967139;28;20327;-79
2022/12/07 07:18:21;;;;;;;28.43;15.80;;;3.20;99.90;;;;;;4967928;28;20220;-81
2022/12/07 07:20:47;;;;;;;44.67;23.10;;;3.30;74.50;;;;;;4966731;28;20876;-81
2022/12/07 07:23:12;;;;;;;22.90;13.13;;;3.30;1.00;;;;;;4965938;28;20335;-80
2022/12/07 07:25:38;;;;;;;22.23;13.00;;;3.30;2.30;;;;;;4967134;28;20916;-80
2022/12/07 07:28:04;;;;;;;21.20;13.80;;;3.30;1.00;;;;;;4966327;28;20189;-80
2022/12/07 07:30:29;;;;;;;22.10;13.83;;;3.30;1.00;;;;;;4967948;28;20196;-80
2022/12/07 07:33:03;;;;;;;23.40;15.00;;;3.20;1.00;;;;;;4968060;28;20188;-81
2022/12/07 07:35:30;;;;;;;19.90;13.37;;;3.80;1.00;;;;;;4966057;28;20686;-80
2022/12/07 07:37:56;;;;;;;21.43;13.43;;;3.30;1.00;;;;;;4966403;28;20655;-80
2022/12/07 07:40:22;;;;;;;19.17;11.67;;;5.00;34.80;;;;;;4966012;28;20203;-81
2022/12/07 07:42:49;;;;;;;16.20;11.73;;;3.20;95.40;;;;;;4965959;28;20185;-80
2022/12/07 07:45:15;;;;;;;18.27;11.37;;;3.20;99.90;;;;;;4966900;28;20216;-80
2022/12/07 07:47:40;;;;;;;21.07;12.87;;;3.20;99.90;;;;;;4966027;28;20185;-80
2022/12/07 07:50:06;;;;;;;19.30;11.50;;;3.30;99.90;;;;;;4967055;28;20219;-81
2022/12/07 07:52:32;;;;;;;21.13;11.87;;;3.20;99.90;;;;;;4965365;28;20272;-80
2022/12/07 07:54:58;;;;;;;19.10;11.63;;;3.30;99.90;;;;;;4967264;28;20691;-80
2022/12/07 07:57:23;;;;;;;18.40;11.43;;;3.30;99.90;;;;;;4968558;28;20185;-81
2022/12/07 07:59:49;;;;;;;14.57;9.93;;;3.30;99.90;;;;;;4966355;28;20212;-80
2022/12/07 08:02:18;;;;;;;20.10;11.60;;;3.30;81.90;;;;;;4965905;28;20682;-80
2022/12/07 08:04:44;;;;;;;17.17;11.33;;;3.30;98.80;;;;;;4967185;28;20201;-80
2022/12/07 08:07:10;;;;;;;19.80;11.90;;;3.40;53.50;;;;;;4967317;28;20267;-80
2022/12/07 08:09:36;;;;;;;16.73;11.50;;;4.10;1.00;;;;;;4969634;28;20173;-82
2022/12/07 08:12:02;;;;;;;18.90;11.17;;;3.40;1.00;;;;;;4969980;28;21268;-80
2022/12/07 08:14:28;;;;;;;14.33;9.70;;;3.40;1.00;;;;;;4967705;28;20304;-81
2022/12/07 08:16:54;;;;;;;14.03;9.27;;;3.50;1.00;;;;;;4968197;28;20228;-80
2022/12/07 08:19:20;;;;;;;12.33;9.47;;;3.40;1.00;;;;;;4967322;28;20181;-81
2022/12/07 08:21:46;;;;;;;13.47;8.63;;;3.40;1.00;;;;;;4967281;28;20189;-80
2022/12/07 08:24:12;;;;;;;13.73;8.43;;;3.40;1.00;;;;;;4966123;28;20208;-82
2022/12/07 08:26:37;;;;;;;14.07;8.47;;;3.40;1.00;;;;;;4965739;28;20196;-80
2022/12/07 08:29:03;;;;;;;15.33;7.80;;;3.40;1.00;;;;;;4967895;28;20226;-80
2022/12/07 08:31:29;;;;;;;13.03;8.20;;;3.40;1.00;;;;;;4965883;28;20604;-80
2022/12/07 08:33:55;;;;;;;12.60;8.60;;;3.30;1.00;;;;;;4964530;28;20317;-83
2022/12/07 08:36:22;;;;;;;11.67;8.67;;;3.40;1.00;;;;;;4965726;28;20199;-82
2022/12/07 08:38:48;;;;;;;11.63;9.37;;;3.30;1.00;;;;;;4966893;28;20200;-81
2022/12/07 08:41:15;;;;;;;11.83;7.90;;;3.40;1.00;;;;;;4965998;28;20193;-80
2022/12/07 08:43:40;;;;;;;13.33;8.23;;;3.40;1.00;;;;;;4964159;28;20734;-82
2022/12/07 08:46:18;;;;;;;14.20;8.47;;;3.40;1.00;;;;;;4967006;28;20292;-83
2022/12/07 08:48:54;;;;;;;12.23;7.70;;;3.40;1.00;;;;;;4965062;28;20283;-83
2022/12/07 08:51:21;;;;;;;11.53;7.73;;;3.50;1.00;;;;;;4965501;28;20201;-83
2022/12/07 08:53:48;;;;;;;14.63;7.97;;;3.50;1.00;;;;;;4966555;28;20224;-84
2022/12/07 08:56:13;;;;;;;13.60;8.20;;;3.60;1.00;;;;;;4964498;28;20761;-83
2022/12/07 08:58:40;;;;;;;14.57;9.23;;;3.60;1.00;;;;;;4963967;28;20192;-83
2022/12/07 09:01:05;;;;;;;14.97;8.43;;;4.30;1.00;;;;;;4964599;28;20189;-83
2022/12/07 09:03:31;;;;;;;12.23;7.93;;;3.60;1.00;;;;;;4969362;28;20196;-85
2022/12/07 09:05:58;;;;;;;10.80;8.73;;;3.60;1.00;;;;;;4968100;28;20189;-83
2022/12/07 09:08:29;;;;;;;9.60;7.13;;;3.50;1.00;;;;;;4967737;28;20280;-83
2022/12/07 09:10:55;;;;;;;9.10;6.80;;;3.50;1.00;;;;;;4970123;28;20204;-84
2022/12/07 09:13:20;;;;;;;10.00;5.83;;;3.60;1.00;;;;;;4967780;28;20437;-83
2022/12/07 09:15:47;;;;;;;9.27;5.80;;;3.70;1.00;;;;;;4970397;28;20326;-84
2022/12/07 09:18:12;;;;;;;9.30;5.93;;;3.70;1.00;;;;;;4966824;28;20181;-83
2022/12/07 09:20:38;;;;;;;6.67;5.17;;;3.70;1.00;;;;;;4968679;28;20681;-83
2022/12/07 09:23:06;;;;;;;7.43;5.37;;;3.80;99.90;;;;;;4968370;28;20184;-83
2022/12/07 09:25:33;;;;;;;7.87;4.63;;;4.90;99.90;;;;;;4967281;28;20267;-82
2022/12/07 09:27:59;;;;;;;8.40;5.37;;;3.70;99.90;;;;;;4968998;28;20199;-83
2022/12/07 09:30:26;;;;;;;6.67;5.03;;;3.70;99.90;;;;;;4967529;28;20196;-83
2022/12/07 09:32:56;;;;;;;5.53;4.47;;;3.70;99.90;;;;;;4967033;28;20193;-83
2022/12/07 09:35:22;;;;;;;8.40;5.67;;;3.70;99.90;;;;;;4968055;28;20212;-82
2022/12/07 09:37:48;;;;;;;8.80;4.50;;;3.70;99.90;;;;;;4967314;28;20192;-83
2022/12/07 09:40:17;;;;;;;4.87;3.50;;;3.80;99.90;;;;;;4966661;28;20200;-83
2022/12/07 09:42:48;;;;;;;6.37;3.47;;;3.70;99.90;;;;;;4967097;28;20263;-83
2022/12/07 09:45:20;;;;;;;7.70;4.43;;;3.70;99.90;;;;;;4966660;28;20208;-83
2022/12/07 09:47:46;;;;;;;6.40;3.73;;;3.60;99.90;;;;;;4965700;28;20189;-83
2022/12/07 09:50:16;;;;;;;6.57;4.07;;;3.60;99.90;;;;;;4967192;28;20239;-83
2022/12/07 09:52:45;;;;;;;6.37;4.23;;;4.20;99.90;;;;;;4982685;28;20193;-82
2022/12/07 09:55:14;;;;;;;7.07;3.87;;;3.60;99.90;;;;;;4967124;28;20201;-82
2022/12/07 09:57:40;;;;;;;6.67;3.77;;;3.80;99.90;;;;;;4966746;28;20185;-83
2022/12/07 10:00:19;;;;;;;9.80;4.57;;;3.80;99.90;;;;;;4964734;28;20188;-83
2022/12/07 10:02:50;;;;;;;10.67;3.90;;;3.90;99.90;;;;;;4966267;28;20331;-83
2022/12/07 10:05:20;;;;;;;9.17;4.47;;;3.90;99.90;;;;;;4972427;28;20209;-84
2022/12/07 10:07:46;;;;;;;6.97;4.10;;;3.90;99.90;;;;;;4974314;28;20181;-84
2022/12/07 10:10:24;;;;;;;8.60;4.60;;;4.00;99.90;;;;;;4973775;28;20260;-82
2022/12/07 10:12:59;;;;;;;8.43;4.77;;;3.90;99.90;;;;;;4972491;28;20196;-83
2022/12/07 10:16:01;;;;;;;8.33;5.13;;;3.90;99.90;;;;;;4965930;28;20219;-84
2022/12/07 10:18:28;;;;;;;7.17;4.43;;;3.70;99.90;;;;;;4947168;28;20224;-85
2022/12/07 10:21:35;;;;;;;10.57;5.43;;;3.90;99.90;;;;;;4968257;28;20229;-85
2022/12/07 10:24:03;;;;;;;7.50;4.57;;;3.90;99.90;;;;;;4973251;28;20244;-83
2022/12/07 10:26:36;;;;;;;5.53;3.87;;;4.00;99.90;;;;;;4971718;28;20193;-84
2022/12/07 10:29:24;;;;;;;6.57;3.80;;;4.00;99.90;;;;;;4972404;28;20276;-83
2022/12/07 10:32:26;;;;;;;4.90;3.20;;;4.00;99.90;;;;;;4969376;28;20204;-84
2022/12/07 10:35:12;;;;;;;6.10;2.90;;;5.20;99.90;;;;;;4971175;28;20322;-84
2022/12/07 10:37:41;;;;;;;5.97;2.40;;;4.30;99.90;;;;;;4971378;28;20824;-84
2022/12/07 10:40:32;;;;;;;4.73;2.40;;;6.00;99.90;;;;;;4972220;28;20228;-82
2022/12/07 10:43:12;;;;;;;6.20;3.27;;;4.20;99.90;;;;;;4972433;28;20272;-86
2022/12/07 10:46:07;;;;;;;4.93;2.10;;;4.20;99.90;;;;;;4989771;28;20208;-85
2022/12/07 10:48:44;;;;;;;3.83;2.03;;;4.10;99.90;;;;;;4963086;28;20197;-84
2022/12/07 10:51:44;;;;;;;4.83;1.80;;;4.10;99.90;;;;;;4968999;28;20329;-85
2022/12/07 10:54:40;;;;;;;4.93;1.70;;;4.60;99.90;;;;;;4969227;28;20217;-86
2022/12/07 10:57:17;;;;;;;4.50;2.23;;;4.10;99.90;;;;;;4976603;28;20189;-85
2022/12/07 10:59:51;;;;;;;4.93;2.17;;;4.10;99.90;;;;;;4977266;28;20188;-83
2022/12/07 11:02:42;;;;;;;4.57;1.97;;;4.10;99.90;;;;;;4990813;28;20265;-84
2022/12/07 11:05:36;;;;;;;3.37;1.83;;;4.10;99.90;;;;;;4975909;28;20234;-82
2022/12/07 11:08:18;;;;;;;3.33;1.70;;;4.10;99.90;;;;;;4970061;28;20184;-78
2022/12/07 11:10:57;;;;;;;5.00;2.20;;;4.10;99.90;;;;;;4971237;28;20184;-84
2022/12/07 11:13:35;;;;;;;5.63;1.90;;;4.30;99.90;;;;;;4969677;28;20234;-84
2022/12/07 11:16:21;;;;;;;4.37;2.07;;;4.30;99.90;;;;;;4973853;28;20176;-84
2022/12/07 11:19:04;;;;;;;6.13;1.67;;;4.30;99.90;;;;;;4971194;28;20205;-84
2022/12/07 11:21:48;;;;;;;6.47;2.20;;;4.40;99.90;;;;;;4967101;28;21143;-83
2022/12/07 11:24:19;;;;;;;6.47;2.30;;;4.40;99.90;;;;;;4964699;28;20209;-82
2022/12/07 11:27:06;;;;;;;3.63;2.10;;;4.50;99.90;;;;;;4965344;28;20185;-82
2022/12/07 11:30:01;;;;;;;4.90;2.20;;;4.40;99.90;;;;;;4967370;28;20197;-83
2022/12/07 11:32:54;;;;;;;3.40;1.53;;;4.40;99.90;;;;;;4967870;28;20184;-85
2022/12/07 11:35:42;;;;;;;5.53;2.07;;;4.30;99.90;;;;;;4968164;28;20297;-83
2022/12/07 11:38:14;;;;;;;3.03;2.17;;;4.30;99.90;;;;;;4967364;28;20455;-82
2022/12/07 11:40:43;;;;;;;3.43;1.60;;;4.30;99.90;;;;;;4981772;28;20204;-82
2022/12/07 11:43:30;;;;;;;2.57;1.50;;;4.30;99.90;;;;;;4965799;28;20188;-81
2022/12/07 11:46:10;;;;;;;7.77;2.70;;;4.30;99.90;;;;;;4963240;28;20197;-81
2022/12/07 11:49:00;;;;;;;3.73;1.40;;;4.20;99.90;;;;;;4964843;28;20177;-82
2022/12/07 11:51:27;;;;;;;4.83;1.80;;;4.20;99.90;;;;;;4965015;28;20212;-81
2022/12/07 11:54:11;;;;;;;4.47;1.97;;;4.20;99.90;;;;;;4964535;28;20217;-80
2022/12/07 11:56:37;;;;;;;5.43;2.00;;;4.00;99.90;;;;;;4964970;28;20219;-81
2022/12/07 11:59:06;;;;;;;3.70;1.27;;;4.10;99.90;;;;;;4967148;28;20192;-82
2022/12/07 12:01:38;;;;;;;3.20;1.50;;;4.10;99.90;;;;;;4965150;28;20192;-80
2022/12/07 12:04:10;;;;;;;3.30;1.80;;;4.00;99.90;;;;;;4966539;28;20244;-83
2022/12/07 12:06:44;;;;;;;5.67;1.43;;;4.10;99.90;;;;;;4965426;28;20193;-82
2022/12/07 12:09:19;;;;;;;4.03;1.40;;;4.20;99.90;;;;;;4968396;28;20199;-84
2022/12/07 12:12:22;;;;;;;4.33;1.30;;;4.20;99.90;;;;;;4986148;28;20188;-84
2022/12/07 12:15:00;;;;;;;2.37;1.20;;;4.20;99.90;;;;;;4968899;28;20304;-83
2022/12/07 12:17:47;;;;;;;2.87;1.10;;;4.40;99.90;;;;;;4985710;28;20196;-81
2022/12/07 12:20:38;;;;;;;3.33;1.37;;;4.10;99.90;;;;;;4968761;28;20661;-81
2022/12/07 12:23:14;;;;;;;5.17;1.87;;;4.10;99.90;;;;;;4969856;28;20185;-83
2022/12/07 12:25:42;;;;;;;3.10;1.37;;;4.20;99.90;;;;;;4966479;28;20212;-82
2022/12/07 12:28:34;;;;;;;3.23;1.30;;;6.00;99.90;;;;;;4966653;28;20291;-82
2022/12/07 12:31:12;;;;;;;4.13;1.57;;;4.20;99.90;;;;;;4968684;28;20193;-82
2022/12/07 12:33:42;;;;;;;3.53;1.47;;;4.10;99.90;;;;;;4968574;28;20307;-83
2022/12/07 12:36:43;;;;;;;4.47;1.60;;;4.10;99.90;;;;;;4968167;28;20200;-81
2022/12/07 12:39:10;;;;;;;5.60;1.70;;;4.20;99.90;;;;;;4973824;28;20284;-79
2022/12/07 12:41:36;;;;;;;4.37;1.63;;;4.20;99.90;;;;;;4973555;28;21174;-86
2022/12/07 12:44:23;;;;;;;5.03;1.70;;;4.20;99.90;;;;;;4974556;28;20216;-83
2022/12/07 12:47:31;;;;;;;3.20;1.57;;;4.20;99.90;;;;;;4973668;28;20247;-83
2022/12/07 12:50:18;;;;;;;5.70;3.40;;;4.10;99.90;;;;;;4960820;28;20204;-84
2022/12/07 12:52:44;;;;;;;30.87;11.13;;;4.10;99.90;;;;;;4972950;28;20375;-81
2022/12/07 12:55:09;;;;;;;10.43;4.33;;;4.10;99.90;;;;;;4969660;28;20251;-84
2022/12/07 12:57:35;;;;;;;10.93;4.00;;;4.00;99.90;;;;;;4968343;28;20193;-83
2022/12/07 13:00:15;;;;;;;9.00;4.33;;;4.10;99.90;;;;;;4968240;28;20188;-83
2022/12/07 13:02:53;;;;;;;10.73;4.30;;;4.10;99.90;;;;;;4969246;28;20188;-83
2022/12/07 13:05:19;;;;;;;8.73;4.10;;;6.20;99.90;;;;;;4965780;28;20243;-82
2022/12/07 13:07:51;;;;;;;9.93;4.33;;;4.00;99.90;;;;;;4965355;28;20656;-83
2022/12/07 13:10:32;;;;;;;8.60;4.60;;;3.90;99.90;;;;;;4965601;28;20256;-83
2022/12/07 13:13:00;;;;;;;13.87;6.23;;;3.90;99.90;;;;;;4970110;28;20189;-82
2022/12/07 13:15:35;;;;;;;5.57;3.10;;;3.80;99.90;;;;;;4968652;28;20219;-84